Terminal Aerodrome Forecast
Issued by NWS

Home | Current Version | Previous Version | Text Only | Print | Product List | Glossary Off
Versions: 1 2 3 4 5 6 7 8 9 10 11 12 13 14 15 16 17 18 19 20 21 22 23 24 25

000
FTUS43 KTOP 250300 AAB
TAFMHK
TAF AMD
KMHK 250301Z 2503/2524 10012KT 3SM -TSRA BR SCT025 OVC050CB
      TEMPO 2503/2504 VRB15G30KT 1SM TSRA OVC026CB
     FM250500 19009KT 3SM -RA SCT025 OVC035
     FM250800 27015KT 6SM -RA BR OVC025
     FM251300 33011KT P6SM SCT020 BKN035=

USA.gov is the U.S. government's official web portal to all federal, state and local government web resources and services.